Ferrisburg, Vermont
Current Conditions -  °F | °C
As of 1:55 AM on Tuesday 21 Oct 2014 (Local Time) from K6B0 Reporting Station
Overcast Overcast  
Wind Chill: 50°   Ceiling: 7000
Heat Index: 50°   Visibility: 10mi
Dew Point: 38°   Wind: 3mph
Humidity: 63%   Direction: 150°SSE
Pressure: 29.92"   Gusts: NA
Location:  44.21°N, 73.25°W
Report Text: K6B0 210555Z AUTO 15003KT 10SM OVC070 10/03 A2992 RMK AO2 T01000033 10105 20091
Loading
Personal Weather Stations






























Interactive Weather Map
Tropical Storm Tracking
New forecast layout! Learn more

10-Day Weather Forecast

Advertisements
Track Severe Weather on mobile